createdAt,value
2023-09-25T00:00:21.275Z,7.82
2023-09-25T00:02:50.178Z,5.30
2023-09-25T00:05:19.006Z,5.57
2023-09-25T00:07:47.013Z,5.22
2023-09-25T00:10:15.078Z,7.15
2023-09-25T00:12:43.226Z,5.60
2023-09-25T00:15:13.330Z,4.93
2023-09-25T00:17:43.827Z,6.10
2023-09-25T00:20:13.291Z,6.78
2023-09-25T00:22:42.221Z,8.38
2023-09-25T00:25:10.633Z,6.20
2023-09-25T00:27:38.803Z,5.68
2023-09-25T00:30:10.170Z,4.72
2023-09-25T00:32:39.709Z,4.70
2023-09-25T00:35:11.127Z,5.22
2023-09-25T00:37:40.076Z,6.25
2023-09-25T00:40:14.872Z,4.85
2023-09-25T00:42:43.768Z,6.32
2023-09-25T00:45:12.316Z,3.90
2023-09-25T00:47:44.098Z,4.15
2023-09-25T00:50:12.757Z,8.27
2023-09-25T00:52:44.150Z,4.97
2023-09-25T00:55:13.849Z,4.68
2023-09-25T00:57:42.040Z,4.80
2023-09-25T01:00:13.037Z,6.45
2023-09-25T01:02:42.982Z,11.00
2023-09-25T01:05:11.581Z,6.90
2023-09-25T01:07:40.424Z,7.57
2023-09-25T01:10:11.120Z,6.10
2023-09-25T01:12:39.378Z,4.10
2023-09-25T01:15:09.016Z,4.53
2023-09-25T01:17:37.525Z,9.25
2023-09-25T01:20:14.077Z,5.13
2023-09-25T01:22:45.115Z,7.35
2023-09-25T01:25:13.613Z,5.57
2023-09-25T01:27:43.482Z,8.00
2023-09-25T01:30:14.602Z,5.63
2023-09-25T01:32:45.795Z,9.30
2023-09-25T01:35:18.747Z,4.53
2023-09-25T01:37:49.760Z,5.35
2023-09-25T01:40:18.984Z,9.70
2023-09-25T01:42:47.978Z,5.35
2023-09-25T01:45:18.417Z,9.02
2023-09-25T01:47:50.839Z,5.13
2023-09-25T01:50:20.176Z,7.10
2023-09-25T01:52:52.319Z,6.38
2023-09-25T01:55:20.567Z,7.97
2023-09-25T01:57:48.660Z,5.07
2023-09-25T02:00:19.887Z,5.43
2023-09-25T02:02:49.056Z,7.17
2023-09-25T02:05:17.998Z,7.70
2023-09-25T02:07:46.244Z,5.65
2023-09-25T02:10:15.604Z,8.82
2023-09-25T02:12:43.841Z,7.70
2023-09-25T02:15:11.995Z,7.30
2023-09-25T02:17:40.023Z,5.25
2023-09-25T02:20:18.294Z,5.30
2023-09-25T02:22:47.829Z,7.35
2023-09-25T02:25:17.705Z,8.70
2023-09-25T02:27:47.701Z,6.72
2023-09-25T02:30:16.638Z,7.38
2023-09-25T02:32:45.029Z,6.03
2023-09-25T02:35:13.673Z,7.13
2023-09-25T02:37:42.657Z,8.20
2023-09-25T02:40:14.499Z,6.55
2023-09-25T02:42:46.074Z,17.00
2023-09-25T02:45:14.255Z,5.80
2023-09-25T02:47:42.430Z,6.63
2023-09-25T02:50:10.976Z,5.22
2023-09-25T02:52:39.001Z,8.55
2023-09-25T02:55:08.541Z,6.68
2023-09-25T02:57:36.780Z,6.07
2023-09-25T03:00:10.247Z,7.07
2023-09-25T03:02:38.372Z,12.32
2023-09-25T03:05:07.791Z,6.15
2023-09-25T03:07:35.738Z,4.97
2023-09-25T03:10:04.895Z,6.25
2023-09-25T03:12:32.891Z,5.47
2023-09-25T03:15:00.928Z,5.97
2023-09-25T03:17:30.416Z,7.88
2023-09-25T03:19:58.447Z,5.53
2023-09-25T03:22:26.375Z,5.38
2023-09-25T03:24:54.357Z,4.35
2023-09-25T03:27:22.358Z,7.85
2023-09-25T03:29:50.336Z,7.05
2023-09-25T03:32:18.302Z,6.22
2023-09-25T03:34:47.679Z,7.57
2023-09-25T03:37:15.668Z,7.05
2023-09-25T03:39:43.796Z,5.10
2023-09-25T03:42:11.887Z,4.93
2023-09-25T03:44:39.876Z,5.43
2023-09-25T03:47:07.867Z,4.95
2023-09-25T03:49:35.880Z,6.15
2023-09-25T03:52:05.628Z,9.25
2023-09-25T03:54:33.708Z,4.95
2023-09-25T03:57:01.693Z,8.07
2023-09-25T03:59:29.677Z,7.38
2023-09-25T04:01:57.726Z,6.88
2023-09-25T04:04:25.842Z,7.28
2023-09-25T04:06:54.346Z,5.55
2023-09-25T04:09:23.727Z,5.57
2023-09-25T04:11:51.742Z,8.20
2023-09-25T04:14:19.792Z,6.45
2023-09-25T04:16:47.758Z,10.30
2023-09-25T04:19:17.204Z,8.10
2023-09-25T04:21:48.901Z,11.90
2023-09-25T04:24:17.006Z,11.07
2023-09-25T04:26:47.994Z,9.50
2023-09-25T04:29:19.004Z,6.80
2023-09-25T04:31:48.518Z,7.35
2023-09-25T04:34:16.774Z,9.32
2023-09-25T04:36:47.230Z,11.57
2023-09-25T04:39:18.041Z,9.32
2023-09-25T04:41:47.732Z,8.95
2023-09-25T04:44:15.729Z,8.95
2023-09-25T04:46:43.803Z,7.32
2023-09-25T04:49:13.929Z,8.73
2023-09-25T04:51:42.001Z,8.88
2023-09-25T04:54:11.687Z,8.43
2023-09-25T04:56:39.934Z,9.05
2023-09-25T04:59:09.578Z,8.27
2023-09-25T05:01:37.572Z,15.77
2023-09-25T05:04:06.227Z,8.05
2023-09-25T05:06:34.262Z,7.63
2023-09-25T05:09:02.347Z,15.10
2023-09-25T05:11:30.356Z,9.85
2023-09-25T05:13:58.336Z,10.18
2023-09-25T05:16:30.337Z,9.10
2023-09-25T05:19:00.895Z,9.93
2023-09-25T05:21:29.108Z,8.15
2023-09-25T05:23:58.267Z,13.48
2023-09-25T05:26:26.306Z,12.35
2023-09-25T05:28:54.288Z,9.23
2023-09-25T05:31:22.270Z,8.35
2023-09-25T05:33:52.484Z,9.52
2023-09-25T05:36:20.842Z,10.05
2023-09-25T05:38:49.196Z,10.55
2023-09-25T05:41:18.150Z,11.10
2023-09-25T05:43:46.161Z,11.30
2023-09-25T05:46:14.305Z,11.35
2023-09-25T05:48:42.468Z,14.15
2023-09-25T05:51:12.005Z,10.40
2023-09-25T05:53:39.958Z,14.95
2023-09-25T05:56:07.969Z,15.25
2023-09-25T05:58:36.704Z,16.05
2023-09-25T06:01:04.798Z,15.65
2023-09-25T06:03:32.985Z,14.85
2023-09-25T06:06:01.030Z,13.38
2023-09-25T06:08:30.374Z,13.07
2023-09-25T06:11:04.607Z,16.10
2023-09-25T06:13:32.712Z,11.02
2023-09-25T06:16:00.711Z,14.02
2023-09-25T06:18:30.868Z,12.10
2023-09-25T06:20:58.995Z,11.60
2023-09-25T06:23:26.946Z,12.35
2023-09-25T06:25:56.279Z,13.20
2023-09-25T06:28:25.409Z,12.38
2023-09-25T06:30:53.513Z,8.75
2023-09-25T06:33:21.676Z,11.20
2023-09-25T06:35:49.846Z,10.02
2023-09-25T06:38:17.886Z,7.22
2023-09-25T06:40:46.861Z,7.22
2023-09-25T06:43:16.638Z,7.60
2023-09-25T06:45:45.282Z,6.72
2023-09-25T06:48:13.418Z,9.60
2023-09-25T06:50:41.989Z,7.53
2023-09-25T06:53:10.727Z,5.57
2023-09-25T06:55:40.467Z,8.85
2023-09-25T06:58:08.955Z,7.72
2023-09-25T07:00:50.697Z,7.15
2023-09-25T07:03:24.356Z,9.45
2023-09-25T07:05:52.593Z,6.85
2023-09-25T07:08:28.821Z,8.13
2023-09-25T07:10:57.076Z,6.95
2023-09-25T07:13:25.311Z,6.43
2023-09-25T07:16:04.772Z,11.18
2023-09-25T07:18:32.908Z,5.13
2023-09-25T07:21:01.314Z,14.05
2023-09-25T07:23:32.599Z,7.38
2023-09-25T07:26:08.478Z,8.25
2023-09-25T07:28:37.333Z,8.68
2023-09-25T07:31:07.628Z,16.30
2023-09-25T07:33:36.504Z,7.47
2023-09-25T07:36:06.701Z,7.43
2023-09-25T07:38:35.191Z,5.70
2023-09-25T07:41:03.480Z,6.55
2023-09-25T07:46:03.989Z,5.50
2023-09-25T07:48:35.601Z,6.32
2023-09-25T07:51:03.650Z,6.60
2023-09-25T07:53:32.140Z,6.45
2023-09-25T07:56:00.090Z,8.38
2023-09-25T07:58:29.793Z,7.88
2023-09-25T08:01:01.867Z,9.23
2023-09-25T08:03:30.360Z,6.25
2023-09-25T08:06:03.029Z,8.73
2023-09-25T08:08:31.203Z,6.32
2023-09-25T08:10:59.209Z,8.75
2023-09-25T08:13:27.510Z,7.15
2023-09-25T08:15:56.010Z,11.15
2023-09-25T08:18:24.964Z,8.30
2023-09-25T08:20:53.041Z,7.10
2023-09-25T08:23:22.473Z,7.90
2023-09-25T08:25:50.477Z,8.15
2023-09-25T08:28:19.296Z,7.28
2023-09-25T08:30:47.323Z,11.43
2023-09-25T08:33:16.465Z,7.25
2023-09-25T08:35:45.142Z,6.50
2023-09-25T08:38:13.207Z,15.13
2023-09-25T08:40:49.318Z,9.82
2023-09-25T08:43:20.700Z,8.70
2023-09-25T08:45:51.354Z,9.52
2023-09-25T08:48:20.656Z,7.10
2023-09-25T08:50:49.857Z,7.35
2023-09-25T08:53:18.405Z,5.28
2023-09-25T08:55:48.163Z,6.00
2023-09-25T08:58:16.728Z,8.55
2023-09-25T09:00:44.900Z,6.03
2023-09-25T09:03:13.052Z,8.88
2023-09-25T09:05:41.089Z,5.13
2023-09-25T09:08:09.663Z,7.07
2023-09-25T09:10:41.388Z,9.27
2023-09-25T09:13:14.079Z,4.35
2023-09-25T09:15:42.786Z,6.43
2023-09-25T09:18:25.824Z,4.07
2023-09-25T09:20:55.392Z,9.00
2023-09-25T09:23:43.866Z,3.75
2023-09-25T09:26:13.376Z,6.43
2023-09-25T09:28:43.480Z,7.20
2023-09-25T09:31:12.422Z,6.85
2023-09-25T09:33:43.924Z,4.82
2023-09-25T09:36:13.917Z,6.50
2023-09-25T09:38:43.586Z,8.80
2023-09-25T09:41:12.129Z,2.88
2023-09-25T09:43:42.438Z,4.05
2023-09-25T09:46:14.653Z,8.93
2023-09-25T09:48:45.842Z,7.38
2023-09-25T09:51:15.248Z,5.57
2023-09-25T09:53:44.184Z,4.00
2023-09-25T09:56:12.773Z,7.20
2023-09-25T09:58:41.354Z,7.20
2023-09-25T10:01:09.873Z,5.72
2023-09-25T10:03:39.853Z,5.18
2023-09-25T10:06:08.226Z,7.10
2023-09-25T10:08:36.910Z,4.68
2023-09-25T10:11:18.114Z,5.20
2023-09-25T10:13:46.152Z,3.58
2023-09-25T10:16:16.739Z,5.55
2023-09-25T10:18:46.383Z,4.35
2023-09-25T10:21:16.384Z,7.25
2023-09-25T10:23:48.842Z,3.72
2023-09-25T10:26:20.360Z,4.05
2023-09-25T10:28:59.664Z,4.03
2023-09-25T10:31:30.590Z,6.90
2023-09-25T10:34:02.113Z,4.43
2023-09-25T10:36:42.113Z,8.93
2023-09-25T10:39:14.414Z,5.00
2023-09-25T10:44:14.564Z,3.63
2023-09-25T10:46:45.366Z,3.20
2023-09-25T10:49:15.035Z,3.20
2023-09-25T10:51:43.396Z,5.82
2023-09-25T10:54:11.392Z,4.10
2023-09-25T10:56:39.467Z,5.30
2023-09-25T10:59:08.726Z,4.50
2023-09-25T11:01:37.067Z,4.00
2023-09-25T11:04:05.759Z,4.65
2023-09-25T11:06:35.676Z,5.22
2023-09-25T11:09:08.900Z,3.30
2023-09-25T11:11:37.377Z,4.75
2023-09-25T11:14:05.474Z,4.00
2023-09-25T11:16:33.967Z,4.78
2023-09-25T11:19:09.958Z,3.55
2023-09-25T11:21:40.792Z,6.78
2023-09-25T11:24:10.833Z,3.97
2023-09-25T11:26:39.367Z,3.03
2023-09-25T11:29:10.594Z,4.55
2023-09-25T11:31:59.279Z,4.30
2023-09-25T11:34:27.607Z,5.43
2023-09-25T11:36:59.087Z,3.38
2023-09-25T11:39:27.341Z,2.97
2023-09-25T11:41:55.475Z,3.60
2023-09-25T11:44:23.679Z,12.55
2023-09-25T11:46:51.721Z,4.53
2023-09-25T11:49:19.818Z,4.50
2023-09-25T11:51:48.135Z,2.95
2023-09-25T11:54:18.330Z,5.68
2023-09-25T11:56:46.392Z,4.13
2023-09-25T11:59:16.610Z,3.97
2023-09-25T12:01:45.836Z,3.40
2023-09-25T12:04:14.468Z,3.63
2023-09-25T12:06:43.497Z,3.00
2023-09-25T12:09:13.053Z,2.50
2023-09-25T12:11:43.179Z,4.78
2023-09-25T12:14:11.267Z,3.28
2023-09-25T12:16:39.457Z,5.15
2023-09-25T12:19:07.803Z,4.63
2023-09-25T12:21:36.114Z,3.97
2023-09-25T12:24:06.799Z,3.60
2023-09-25T12:26:34.984Z,3.30
2023-09-25T12:29:04.412Z,2.72
2023-09-25T12:31:32.718Z,2.67
2023-09-25T12:34:01.216Z,4.20
2023-09-25T12:36:29.498Z,3.47
2023-09-25T12:38:57.592Z,4.70
2023-09-25T12:41:25.614Z,2.88
2023-09-25T12:43:53.732Z,4.93
2023-09-25T12:46:23.130Z,4.05
2023-09-25T12:48:51.727Z,4.55
2023-09-25T12:51:19.941Z,2.85
2023-09-25T12:53:48.663Z,3.05
2023-09-25T12:56:16.879Z,2.35
2023-09-25T12:58:44.887Z,3.78
2023-09-25T13:01:13.359Z,4.38
2023-09-25T13:03:42.992Z,1.85
2023-09-25T13:06:11.426Z,1.50
2023-09-25T13:08:39.565Z,3.38
2023-09-25T13:11:07.596Z,4.90
2023-09-25T13:13:35.582Z,2.90
2023-09-25T13:16:03.909Z,3.40
2023-09-25T13:18:31.983Z,2.08
2023-09-25T13:21:01.401Z,2.05
2023-09-25T13:23:29.366Z,2.22
2023-09-25T13:25:57.345Z,2.20
2023-09-25T13:28:25.286Z,3.28
2023-09-25T13:30:53.302Z,5.47
2023-09-25T13:33:21.477Z,3.63
2023-09-25T13:35:50.230Z,4.05
2023-09-25T13:38:20.152Z,2.17
2023-09-25T13:40:48.142Z,2.70
2023-09-25T13:43:16.123Z,3.22
2023-09-25T13:45:44.069Z,3.88
2023-09-25T13:48:12.175Z,3.33
2023-09-25T13:50:40.209Z,2.47
2023-09-25T13:53:08.223Z,5.07
2023-09-25T13:55:37.656Z,3.10
2023-09-25T13:58:06.198Z,2.47
2023-09-25T14:00:36.150Z,1.85
2023-09-25T14:03:04.957Z,2.45
2023-09-25T14:05:37.575Z,2.35
2023-09-25T14:08:06.128Z,4.57
2023-09-25T14:10:39.063Z,1.95
2023-09-25T14:13:07.807Z,3.38
2023-09-25T14:15:36.516Z,3.65
2023-09-25T14:18:05.170Z,2.72
2023-09-25T14:20:33.502Z,2.90
2023-09-25T14:23:02.874Z,2.15
2023-09-25T14:25:30.830Z,3.13
2023-09-25T14:28:00.294Z,2.88
2023-09-25T14:30:28.311Z,6.10
2023-09-25T14:32:57.497Z,2.85
2023-09-25T14:35:26.834Z,5.80
2023-09-25T14:37:54.937Z,6.38
2023-09-25T14:40:22.984Z,3.25
2023-09-25T14:42:51.452Z,3.60
2023-09-25T14:45:22.155Z,4.45
2023-09-25T14:47:50.235Z,4.03
2023-09-25T14:50:18.533Z,3.15
2023-09-25T14:52:46.958Z,5.15
2023-09-25T14:55:15.068Z,2.95
2023-09-25T14:57:44.111Z,1.98
2023-09-25T15:00:13.694Z,3.55
2023-09-25T15:02:43.646Z,3.42
2023-09-25T15:05:11.757Z,4.80
2023-09-25T15:07:39.976Z,4.30
2023-09-25T15:10:09.672Z,4.45
2023-09-25T15:12:38.512Z,2.88
2023-09-25T15:15:07.604Z,3.85
2023-09-25T15:17:35.701Z,2.88
2023-09-25T15:20:07.129Z,2.15
2023-09-25T15:22:35.166Z,2.60
2023-09-25T15:25:03.881Z,1.90
2023-09-25T15:27:31.914Z,2.33
2023-09-25T15:30:00.052Z,2.72
2023-09-25T15:32:28.242Z,3.97
2023-09-25T15:34:56.340Z,2.03
2023-09-25T15:37:28.590Z,5.75
2023-09-25T15:39:56.935Z,4.75
2023-09-25T15:42:25.064Z,2.63
2023-09-25T15:44:53.120Z,3.90
2023-09-25T15:47:21.160Z,3.42
2023-09-25T15:49:50.712Z,9.05
2023-09-25T15:52:18.774Z,5.68
2023-09-25T15:54:48.222Z,2.63
2023-09-25T15:57:16.355Z,3.00
2023-09-25T15:59:44.343Z,2.60
2023-09-25T16:02:13.003Z,4.32
2023-09-25T16:04:41.323Z,3.10
2023-09-25T16:07:09.787Z,4.07
2023-09-25T16:09:38.045Z,5.13
2023-09-25T16:12:07.906Z,3.83
2023-09-25T16:14:35.888Z,2.67
2023-09-25T16:17:03.960Z,5.22
2023-09-25T16:19:32.091Z,3.75
2023-09-25T16:22:03.484Z,4.15
2023-09-25T16:24:32.905Z,2.55
2023-09-25T16:27:00.912Z,4.45
2023-09-25T16:29:30.466Z,4.68
2023-09-25T16:31:58.747Z,3.38
2023-09-25T16:34:27.962Z,4.72
2023-09-25T16:36:56.360Z,2.92
2023-09-25T16:39:27.306Z,3.72
2023-09-25T16:41:57.069Z,2.67
2023-09-25T16:44:26.108Z,3.50
2023-09-25T16:46:55.775Z,4.28
2023-09-25T16:49:24.108Z,2.92
2023-09-25T16:51:52.244Z,3.85
2023-09-25T16:54:20.291Z,7.10
2023-09-25T16:56:49.395Z,5.53
2023-09-25T16:59:18.065Z,3.78
2023-09-25T17:01:46.803Z,2.38
2023-09-25T17:04:16.319Z,4.10
2023-09-25T17:06:44.387Z,3.70
2023-09-25T17:09:12.400Z,5.45
2023-09-25T17:11:40.357Z,3.20
2023-09-25T17:14:10.919Z,2.63
2023-09-25T17:16:40.270Z,4.28
2023-09-25T17:19:08.667Z,2.90
2023-09-25T17:21:38.217Z,5.45
2023-09-25T17:24:06.992Z,4.25
2023-09-25T17:26:35.026Z,2.58
2023-09-25T17:29:03.938Z,3.17
2023-09-25T17:31:32.194Z,5.75
2023-09-25T17:34:00.532Z,3.53
2023-09-25T17:36:28.652Z,4.80
2023-09-25T17:38:57.985Z,5.35
2023-09-25T17:41:26.498Z,4.72
2023-09-25T17:43:54.532Z,5.60
2023-09-25T17:46:22.853Z,4.13
2023-09-25T17:48:51.046Z,4.45
2023-09-25T17:51:19.094Z,5.10
2023-09-25T17:53:47.221Z,4.90
2023-09-25T17:56:16.620Z,4.90
2023-09-25T17:58:44.721Z,5.40
2023-09-25T18:01:12.823Z,6.20
2023-09-25T18:03:41.073Z,3.95
2023-09-25T18:06:09.354Z,5.30
2023-09-25T18:08:37.437Z,4.25
2023-09-25T18:11:05.438Z,5.97
2023-09-25T18:13:34.840Z,4.03
2023-09-25T18:16:03.123Z,4.43
2023-09-25T18:18:31.704Z,6.97
2023-09-25T18:21:00.827Z,5.00
2023-09-25T18:23:30.735Z,6.60
2023-09-25T18:25:59.993Z,3.58
2023-09-25T18:28:27.975Z,4.00
2023-09-25T18:30:59.960Z,4.13
2023-09-25T18:33:28.039Z,4.78
2023-09-25T18:35:57.204Z,4.53
2023-09-25T18:38:25.201Z,7.65
2023-09-25T18:40:55.808Z,5.43
2023-09-25T18:43:26.307Z,6.97
2023-09-25T18:45:54.444Z,4.55
2023-09-25T18:48:23.903Z,4.90
2023-09-25T18:50:51.962Z,5.65
2023-09-25T18:53:19.975Z,5.07
2023-09-25T18:55:47.966Z,5.00
2023-09-25T18:58:16.303Z,6.18
2023-09-25T19:00:49.215Z,6.32
2023-09-25T19:03:17.365Z,4.88
2023-09-25T19:05:48.245Z,7.53
2023-09-25T19:08:18.738Z,5.72
2023-09-25T19:10:46.789Z,5.72
2023-09-25T19:13:26.315Z,7.15
2023-09-25T19:15:59.149Z,7.80
2023-09-25T19:18:27.688Z,6.57
2023-09-25T19:20:57.081Z,4.65
2023-09-25T19:23:25.084Z,4.53
2023-09-25T19:25:53.135Z,6.45
2023-09-25T19:28:21.329Z,5.85
2023-09-25T19:30:49.720Z,5.10
2023-09-25T19:33:18.226Z,6.63
2023-09-25T19:35:46.403Z,5.55
2023-09-25T19:38:15.762Z,6.40
2023-09-25T19:40:43.745Z,7.88
2023-09-25T19:43:11.915Z,5.88
2023-09-25T19:45:40.127Z,10.05
2023-09-25T19:48:08.606Z,10.85
2023-09-25T19:50:36.945Z,6.57
2023-09-25T19:53:05.304Z,6.25
2023-09-25T19:55:34.815Z,7.07
2023-09-25T19:58:04.089Z,7.65
2023-09-25T20:00:32.390Z,8.85
2023-09-25T20:03:01.163Z,10.35
2023-09-25T20:05:30.272Z,7.60
2023-09-25T20:07:59.502Z,6.72
2023-09-25T20:10:27.828Z,6.80
2023-09-25T20:12:57.361Z,7.07
2023-09-25T20:15:25.850Z,8.43
2023-09-25T20:17:53.938Z,5.78
2023-09-25T20:20:22.200Z,8.00
2023-09-25T20:22:50.341Z,9.20
2023-09-25T20:25:18.820Z,6.82
2023-09-25T20:27:47.007Z,5.70
2023-09-25T20:30:19.137Z,8.10
2023-09-25T20:32:47.118Z,6.63
2023-09-25T20:35:15.227Z,7.70
2023-09-25T20:37:43.338Z,6.90
2023-09-25T20:40:11.838Z,9.48
2023-09-25T20:42:40.045Z,5.95
2023-09-25T20:45:09.138Z,7.40
2023-09-25T20:47:38.680Z,7.60
2023-09-25T20:50:07.361Z,6.25
2023-09-25T20:52:35.442Z,9.20
2023-09-25T20:55:03.418Z,7.75
2023-09-25T20:57:31.532Z,8.65
2023-09-25T20:59:59.490Z,8.05
2023-09-25T21:02:27.554Z,8.30
2023-09-25T21:04:56.895Z,6.40
2023-09-25T21:07:24.896Z,7.05
2023-09-25T21:09:53.035Z,6.05
2023-09-25T21:12:21.260Z,6.13
2023-09-25T21:14:49.293Z,7.50
2023-09-25T21:17:17.314Z,8.65
2023-09-25T21:19:45.466Z,12.00
2023-09-25T21:22:15.462Z,7.65
2023-09-25T21:24:43.603Z,9.38
2023-09-25T21:27:11.562Z,9.48
2023-09-25T21:29:39.612Z,8.45
2023-09-25T21:32:07.735Z,8.13
2023-09-25T21:34:36.887Z,9.38
2023-09-25T21:37:05.998Z,7.68
2023-09-25T21:39:35.549Z,11.50
2023-09-25T21:42:04.158Z,11.38
2023-09-25T21:44:32.224Z,11.48
2023-09-25T21:47:00.394Z,8.57
2023-09-25T21:49:28.455Z,11.63
2023-09-25T21:51:56.470Z,11.77
2023-09-25T21:54:24.522Z,8.05
2023-09-25T21:56:53.886Z,12.02
2023-09-25T21:59:21.912Z,9.63
2023-09-25T22:01:49.954Z,7.22
2023-09-25T22:04:17.153Z,6.95
2023-09-25T22:06:45.265Z,6.85
2023-09-25T22:09:14.729Z,10.43
2023-09-25T22:11:43.143Z,6.97
2023-09-25T22:14:12.513Z,8.27
2023-09-25T22:16:41.019Z,10.18
2023-09-25T22:19:09.555Z,11.23
2023-09-25T22:21:37.722Z,8.57
2023-09-25T22:24:06.776Z,13.13
2023-09-25T22:26:35.505Z,9.05
2023-09-25T22:29:03.802Z,8.70
2023-09-25T22:31:33.307Z,10.63
2023-09-25T22:34:01.417Z,8.52
2023-09-25T22:36:29.450Z,8.75
2023-09-25T22:38:57.657Z,9.20
2023-09-25T22:41:27.842Z,13.63
2023-09-25T22:43:55.836Z,12.45
2023-09-25T22:46:24.004Z,8.93
2023-09-25T22:48:53.538Z,8.43
2023-09-25T22:51:21.561Z,9.63
2023-09-25T22:53:49.792Z,12.35
2023-09-25T22:56:18.104Z,9.88
2023-09-25T22:58:46.251Z,7.82
2023-09-25T23:01:14.492Z,9.15
2023-09-25T23:03:42.773Z,13.93
2023-09-25T23:06:12.156Z,10.40
2023-09-25T23:08:40.159Z,11.15
2023-09-25T23:11:08.147Z,11.20
2023-09-25T23:13:36.330Z,9.75
2023-09-25T23:16:04.372Z,11.13
2023-09-25T23:18:32.363Z,14.32
2023-09-25T23:21:00.412Z,9.45
2023-09-25T23:23:29.784Z,11.48
2023-09-25T23:25:57.841Z,10.60
2023-09-25T23:28:25.905Z,9.23
2023-09-25T23:30:54.680Z,7.38
2023-09-25T23:33:22.702Z,11.48
2023-09-25T23:35:50.648Z,10.80
2023-09-25T23:38:18.737Z,9.35
2023-09-25T23:40:50.359Z,8.60
2023-09-25T23:43:18.461Z,11.40
2023-09-25T23:45:46.652Z,8.65
2023-09-25T23:48:14.732Z,9.10
2023-09-25T23:50:42.765Z,10.23
2023-09-25T23:53:10.713Z,9.60
2023-09-25T23:55:38.696Z,9.93
2023-09-25T23:58:08.065Z,11.38
